MMMX/MEX METAR and TAF weather

Enter ICAO airport designator
Station Type Date Time Source
MMMX METAR 2020/06/06 20:45 UTC NOAA

MMMX 062045Z 03014KT 10SM SCT030 27/04 A3017 NOSIG RMK SLP015 57021 902 8/200 HZY


Station Type Date Time Source
MMMX Decoded METAR 2020/06/06 20:45 UTC NOAA

Mexico City / Licenci, Mexico (MMMX) 19-26N 099-06W
Jun 06, 2020 - 04:45 PM EDT / 2020.06.06 2045 UTC
Wind: from the NNE (030 degrees) at 16 MPH (14 KT):0
Visibility: 10 mile(s):0
Sky conditions: partly cloudy
Temperature: 80 F (27 C)
Dew Point: 39 F (4 C)
Relative Humidity: 22%
Pressure (altimeter): 30.17 in. Hg (1021 hPa)
Pressure tendency: 0.06 inches (2.1 hPa) lower than three hours ago
ob: MMMX 062045Z 03014KT 10SM SCT030 27/04 A3017 NOSIG RMK SLP015 57021 902 8/200 HZY
cycle: 21

Station Type Date Time Source
MMMX TAF 2020/06/06 18:36 UTC NOAA

TAF MMMX 061633Z 0618/0724 03008KT P6SM SCT030 TX27/0622Z TN14/0713Z
BECMG 0620/0621 36015KT
TEMPO 0622/0702 BKN030
FM070300 03006KT P6SM SCT030
BECMG 0705/0706 00000KT
FM071200 00000KT 6SM HZ SCT030
BECMG 0717/0718 14005KT
FM072100 13012KT 6SM HZ BKN030CB BKN080 PROB40 0721/0724 6SM TSRA

Example: see airport list